CAL157 RJBB-RCTP
Flight info
| Callsign | CAL157 |
|---|---|
| Flight time | N/A |
| Altitude | 38000 |
| Route | OMGOR Y34 HKC Y50 IGMON A1 DRAKE DRAKE1A |
| Aircraft | B77W/H-SDE1E2E3FGHIJ2J3J4J5M1RWXY/LB1D1 |
Departure
| Time | 2026-04-28 10:40 |
|---|---|
| Airport | Kansai International Airport (RJBB) |
Arrival
| Time | N/A |
|---|---|
| Airport | Taiwan Taoyuan International Airport (RCTP) |
| Time | Latitude | Longitude | Altitude | Speed | Heading |
|---|---|---|---|---|---|
| 2026-04-28 10:01 | 34.43452 | 135.24663 | 15 ft | 0 kts | 321° |
| 2026-04-28 10:22 | 34.43451 | 135.24663 | 15 ft | 0 kts | 321° |
| 2026-04-28 10:22 | 34.43440 | 135.24675 | 15 ft | 2 kts | 321° |
| 2026-04-28 10:23 | 34.43428 | 135.24686 | 15 ft | 2 kts | 321° |
| 2026-04-28 10:23 | 34.43417 | 135.24696 | 15 ft | 2 kts | 321° |
| 2026-04-28 10:23 | 34.43406 | 135.24709 | 15 ft | 2 kts | 302° |
| 2026-04-28 10:23 | 34.43401 | 135.24725 | 15 ft | 2 kts | 271° |
| 2026-04-28 10:24 | 34.43403 | 135.24744 | 15 ft | 2 kts | 245° |
| 2026-04-28 10:24 | 34.43411 | 135.24757 | 15 ft | 2 kts | 226° |
| 2026-04-28 10:24 | 34.43422 | 135.24771 | 15 ft | 2 kts | 228° |
| 2026-04-28 10:24 | 34.43427 | 135.24777 | 15 ft | 0 kts | 230° |
| 2026-04-28 10:27 | 34.43426 | 135.24777 | 15 ft | 0 kts | 230° |
| 2026-04-28 10:27 | 34.43411 | 135.24756 | 15 ft | 6 kts | 230° |
| 2026-04-28 10:27 | 34.43372 | 135.24699 | 15 ft | 10 kts | 231° |
| 2026-04-28 10:27 | 34.43325 | 135.24637 | 15 ft | 8 kts | 206° |
| 2026-04-28 10:28 | 34.43261 | 135.24646 | 15 ft | 9 kts | 181° |
| 2026-04-28 10:28 | 34.43182 | 135.24564 | 15 ft | 12 kts | 230° |
| 2026-04-28 10:28 | 34.43144 | 135.24504 | 15 ft | 13 kts | 231° |
| 2026-04-28 10:29 | 34.43009 | 135.24303 | 15 ft | 16 kts | 231° |
| 2026-04-28 10:29 | 34.42935 | 135.24194 | 15 ft | 17 kts | 230° |
| 2026-04-28 10:29 | 34.42857 | 135.24078 | 15 ft | 16 kts | 231° |
| 2026-04-28 10:29 | 34.42786 | 135.23972 | 15 ft | 15 kts | 231° |
| 2026-04-28 10:30 | 34.42719 | 135.23872 | 15 ft | 14 kts | 231° |
| 2026-04-28 10:30 | 34.42657 | 135.23778 | 15 ft | 14 kts | 231° |
| 2026-04-28 10:30 | 34.42597 | 135.23688 | 15 ft | 13 kts | 231° |
| 2026-04-28 10:30 | 34.42586 | 135.23589 | 15 ft | 13 kts | 302° |
| 2026-04-28 10:31 | 34.42654 | 135.23517 | 15 ft | 13 kts | 321° |
| 2026-04-28 10:31 | 34.42727 | 135.23445 | 15 ft | 13 kts | 321° |
| 2026-04-28 10:31 | 34.42801 | 135.23373 | 15 ft | 13 kts | 321° |
| 2026-04-28 10:31 | 34.42876 | 135.23300 | 15 ft | 13 kts | 321° |
| 2026-04-28 10:32 | 34.42954 | 135.23225 | 15 ft | 14 kts | 321° |
| 2026-04-28 10:32 | 34.43029 | 135.23152 | 15 ft | 14 kts | 321° |
| 2026-04-28 10:32 | 34.43107 | 135.23076 | 15 ft | 14 kts | 320° |
| 2026-04-28 10:32 | 34.43190 | 135.22994 | 15 ft | 15 kts | 320° |
| 2026-04-28 10:33 | 34.43278 | 135.22908 | 15 ft | 16 kts | 321° |
| 2026-04-28 10:33 | 34.43372 | 135.22816 | 15 ft | 17 kts | 321° |
| 2026-04-28 10:33 | 34.43469 | 135.22720 | 15 ft | 18 kts | 321° |
| 2026-04-28 10:33 | 34.43571 | 135.22620 | 15 ft | 18 kts | 321° |
| 2026-04-28 10:34 | 34.43671 | 135.22525 | 15 ft | 17 kts | 321° |
| 2026-04-28 10:34 | 34.43759 | 135.22438 | 15 ft | 11 kts | 320° |
| 2026-04-28 10:34 | 34.43816 | 135.22415 | 15 ft | 9 kts | 19° |
| 2026-04-28 10:34 | 34.43869 | 135.22475 | 15 ft | 11 kts | 48° |
| 2026-04-28 10:35 | 34.43924 | 135.22551 | 15 ft | 12 kts | 53° |
| 2026-04-28 10:35 | 34.44000 | 135.22672 | 15 ft | 14 kts | 52° |
| 2026-04-28 10:35 | 34.44044 | 135.22737 | 15 ft | 15 kts | 51° |
| 2026-04-28 10:35 | 34.44113 | 135.22839 | 15 ft | 16 kts | 51° |
| 2026-04-28 10:36 | 34.44187 | 135.22949 | 15 ft | 17 kts | 50° |
| 2026-04-28 10:36 | 34.44265 | 135.23064 | 15 ft | 17 kts | 51° |
| 2026-04-28 10:36 | 34.44340 | 135.23175 | 15 ft | 16 kts | 51° |
| 2026-04-28 10:36 | 34.44414 | 135.23286 | 15 ft | 17 kts | 51° |
| 2026-04-28 10:37 | 34.44494 | 135.23407 | 15 ft | 19 kts | 51° |
| 2026-04-28 10:37 | 34.44581 | 135.23538 | 15 ft | 20 kts | 51° |
| 2026-04-28 10:37 | 34.44671 | 135.23674 | 15 ft | 20 kts | 50° |
| 2026-04-28 10:37 | 34.44759 | 135.23802 | 15 ft | 19 kts | 50° |
| 2026-04-28 10:38 | 34.44841 | 135.23924 | 15 ft | 18 kts | 51° |
| 2026-04-28 10:38 | 34.44918 | 135.24040 | 15 ft | 17 kts | 51° |
| 2026-04-28 10:38 | 34.44994 | 135.24097 | 15 ft | 12 kts | 351° |
| 2026-04-28 10:38 | 34.45061 | 135.24042 | 15 ft | 11 kts | 320° |
| 2026-04-28 10:39 | 34.45101 | 135.23981 | 15 ft | 8 kts | 268° |
| 2026-04-28 10:39 | 34.45079 | 135.23930 | 15 ft | 4 kts | 231° |
| 2026-04-28 10:39 | 34.44958 | 135.23749 | 15 ft | 64 kts | 231° |
| 2026-04-28 10:39 | 34.44504 | 135.23076 | 16 ft | 138 kts | 231° |
| 2026-04-28 10:40 | 34.43848 | 135.22075 | 523 ft | 157 kts | 231° |
| 2026-04-28 10:40 | 34.43238 | 135.20891 | 1280 ft | 170 kts | 246° |
| 2026-04-28 10:40 | 34.42933 | 135.19453 | 1700 ft | 184 kts | 258° |
| 2026-04-28 10:40 | 34.42708 | 135.17825 | 2103 ft | 201 kts | 259° |
| 2026-04-28 10:41 | 34.42472 | 135.16081 | 2587 ft | 216 kts | 259° |
| 2026-04-28 10:41 | 34.42218 | 135.14192 | 3068 ft | 233 kts | 260° |
| 2026-04-28 10:41 | 34.41945 | 135.12163 | 3615 ft | 248 kts | 260° |
| 2026-04-28 10:41 | 34.41657 | 135.10023 | 4362 ft | 255 kts | 261° |
| 2026-04-28 10:42 | 34.41370 | 135.07889 | 5208 ft | 256 kts | 261° |
| 2026-04-28 10:42 | 34.40888 | 135.05792 | 6022 ft | 259 kts | 243° |
| 2026-04-28 10:42 | 34.39756 | 135.04097 | 6821 ft | 262 kts | 224° |
| 2026-04-28 10:42 | 34.38351 | 135.02670 | 7671 ft | 263 kts | 222° |
| 2026-04-28 10:43 | 34.36911 | 135.01286 | 8580 ft | 261 kts | 222° |
| 2026-04-28 10:43 | 34.35475 | 134.99905 | 9371 ft | 263 kts | 223° |
| 2026-04-28 10:43 | 34.34032 | 134.98515 | 10143 ft | 263 kts | 223° |
| 2026-04-28 10:43 | 34.32561 | 134.97095 | 10660 ft | 276 kts | 223° |
| 2026-04-28 10:44 | 34.31094 | 134.95381 | 11033 ft | 291 kts | 232° |
| 2026-04-28 10:44 | 34.29853 | 134.93288 | 11441 ft | 306 kts | 241° |
| 2026-04-28 10:44 | 34.28743 | 134.90950 | 11895 ft | 322 kts | 242° |
| 2026-04-28 10:44 | 34.27591 | 134.88506 | 12429 ft | 336 kts | 242° |
| 2026-04-28 10:45 | 34.26395 | 134.85982 | 13011 ft | 349 kts | 242° |
| 2026-04-28 10:45 | 34.25148 | 134.83365 | 13852 ft | 357 kts | 242° |
| 2026-04-28 10:45 | 34.23880 | 134.80705 | 14861 ft | 361 kts | 242° |
| 2026-04-28 10:45 | 34.22610 | 134.78046 | 15937 ft | 362 kts | 242° |
| 2026-04-28 10:46 | 34.21325 | 134.75357 | 16946 ft | 364 kts | 242° |
| 2026-04-28 10:46 | 34.20030 | 134.72647 | 17803 ft | 370 kts | 242° |
| 2026-04-28 10:46 | 34.18579 | 134.69983 | 18621 ft | 377 kts | 238° |
| 2026-04-28 10:46 | 34.18067 | 134.69099 | 18918 ft | 378 kts | 238° |
| 2026-04-28 10:47 | 34.10886 | 134.56578 | 22783 ft | 393 kts | 239° |
| 2026-04-28 10:48 | 34.09330 | 134.53851 | 23573 ft | 396 kts | 239° |
| 2026-04-28 10:48 | 34.07738 | 134.51060 | 24309 ft | 400 kts | 240° |
| 2026-04-28 10:48 | 34.06102 | 134.48190 | 24913 ft | 408 kts | 240° |
| 2026-04-28 10:48 | 34.04452 | 134.45299 | 25542 ft | 414 kts | 240° |
| 2026-04-28 10:49 | 34.02782 | 134.42374 | 26230 ft | 419 kts | 240° |
| 2026-04-28 10:49 | 34.01087 | 134.39420 | 26941 ft | 422 kts | 240° |
| 2026-04-28 10:49 | 33.99358 | 134.36423 | 27638 ft | 426 kts | 240° |
| 2026-04-28 10:49 | 33.97621 | 134.33414 | 28277 ft | 432 kts | 239° |
| 2026-04-28 10:50 | 33.95865 | 134.30374 | 28945 ft | 436 kts | 239° |
| 2026-04-28 10:50 | 33.94109 | 134.27338 | 29680 ft | 438 kts | 239° |
| 2026-04-28 10:50 | 33.92302 | 134.24216 | 30584 ft | 437 kts | 239° |
| 2026-04-28 10:50 | 33.90528 | 134.21184 | 31498 ft | 435 kts | 239° |
| 2026-04-28 10:51 | 33.88741 | 134.18161 | 32367 ft | 432 kts | 239° |
| 2026-04-28 10:51 | 33.86975 | 134.15176 | 33077 ft | 432 kts | 239° |
| 2026-04-28 10:51 | 33.85237 | 134.12236 | 33747 ft | 432 kts | 239° |
| 2026-04-28 10:51 | 33.83464 | 134.09242 | 34489 ft | 431 kts | 239° |
| 2026-04-28 10:52 | 33.81686 | 134.06242 | 35309 ft | 428 kts | 239° |
| 2026-04-28 10:52 | 33.79982 | 134.03368 | 36142 ft | 423 kts | 239° |
| 2026-04-28 10:52 | 33.78223 | 134.00401 | 36829 ft | 421 kts | 239° |
| 2026-04-28 10:52 | 33.76496 | 133.97492 | 37314 ft | 421 kts | 239° |
| 2026-04-28 10:53 | 33.74752 | 133.94553 | 37735 ft | 422 kts | 239° |
| 2026-04-28 10:53 | 33.73004 | 133.91611 | 38024 ft | 425 kts | 239° |
| 2026-04-28 10:53 | 33.71254 | 133.88667 | 38009 ft | 424 kts | 239° |
| 2026-04-28 10:54 | 33.67766 | 133.82812 | 38000 ft | 422 kts | 239° |
| 2026-04-28 10:54 | 33.64272 | 133.76953 | 37998 ft | 423 kts | 239° |
| 2026-04-28 10:55 | 33.60789 | 133.71135 | 37994 ft | 423 kts | 239° |
| 2026-04-28 10:55 | 33.57285 | 133.65294 | 37982 ft | 423 kts | 239° |
| 2026-04-28 10:56 | 33.53770 | 133.59444 | 37969 ft | 421 kts | 239° |
| 2026-04-28 10:56 | 33.50245 | 133.53584 | 37965 ft | 424 kts | 239° |
| 2026-04-28 10:57 | 33.46746 | 133.47780 | 37966 ft | 424 kts | 239° |
| 2026-04-28 10:57 | 33.43194 | 133.41896 | 37969 ft | 423 kts | 239° |
| 2026-04-28 10:58 | 33.39646 | 133.36069 | 37963 ft | 423 kts | 239° |
| 2026-04-28 10:58 | 33.36123 | 133.30299 | 37980 ft | 423 kts | 238° |
| 2026-04-28 10:59 | 33.32581 | 133.24506 | 37985 ft | 425 kts | 238° |
| 2026-04-28 10:59 | 33.29038 | 133.18721 | 37986 ft | 424 kts | 238° |
| 2026-04-28 11:00 | 33.25491 | 133.12935 | 37979 ft | 425 kts | 238° |
| 2026-04-28 11:00 | 33.21951 | 133.07172 | 37985 ft | 426 kts | 238° |
| 2026-04-28 11:01 | 33.18401 | 133.01402 | 37980 ft | 425 kts | 238° |
| 2026-04-28 11:01 | 33.15323 | 132.96405 | 37986 ft | 426 kts | 238° |
| 2026-04-28 11:02 | 33.11865 | 132.90801 | 37984 ft | 426 kts | 238° |
| 2026-04-28 11:02 | 33.08315 | 132.85054 | 37966 ft | 425 kts | 238° |
| 2026-04-28 11:03 | 33.05109 | 132.79868 | 37972 ft | 428 kts | 239° |
| 2026-04-28 11:03 | 33.02475 | 132.73515 | 37970 ft | 419 kts | 256° |
| 2026-04-28 11:04 | 33.01423 | 132.66534 | 37972 ft | 418 kts | 263° |
| 2026-04-28 11:04 | 33.00596 | 132.59586 | 37969 ft | 417 kts | 263° |
| 2026-04-28 11:05 | 32.99752 | 132.52547 | 37966 ft | 417 kts | 263° |
| 2026-04-28 11:05 | 32.98911 | 132.45586 | 37963 ft | 415 kts | 263° |
| 2026-04-28 11:06 | 32.97597 | 132.38852 | 37961 ft | 419 kts | 250° |
| 2026-04-28 11:06 | 32.94476 | 132.32881 | 37991 ft | 426 kts | 236° |
| 2026-04-28 11:07 | 32.90682 | 132.27428 | 37975 ft | 428 kts | 235° |
| 2026-04-28 11:07 | 32.86840 | 132.21939 | 37976 ft | 428 kts | 235° |
| 2026-04-28 11:08 | 32.82972 | 132.16422 | 37977 ft | 428 kts | 235° |
| 2026-04-28 11:08 | 32.79099 | 132.10904 | 37981 ft | 430 kts | 234° |
| 2026-04-28 11:09 | 32.75232 | 132.05405 | 37985 ft | 430 kts | 234° |
| 2026-04-28 11:09 | 32.71337 | 131.99875 | 37984 ft | 429 kts | 234° |
| 2026-04-28 11:10 | 32.67467 | 131.94388 | 37987 ft | 429 kts | 234° |
| 2026-04-28 11:10 | 32.63560 | 131.88856 | 37984 ft | 430 kts | 235° |
| 2026-04-28 11:11 | 32.59636 | 131.83308 | 37991 ft | 431 kts | 234° |
| 2026-04-28 11:11 | 32.55711 | 131.77768 | 37984 ft | 430 kts | 234° |
| 2026-04-28 11:12 | 32.51749 | 131.72179 | 37981 ft | 431 kts | 234° |
| 2026-04-28 11:12 | 32.47828 | 131.66656 | 37985 ft | 431 kts | 234° |
| 2026-04-28 11:13 | 32.43891 | 131.61121 | 37984 ft | 431 kts | 234° |
| 2026-04-28 11:13 | 32.39939 | 131.55572 | 37986 ft | 433 kts | 234° |
| 2026-04-28 11:14 | 32.36017 | 131.50075 | 37995 ft | 430 kts | 234° |
| 2026-04-28 11:14 | 32.32073 | 131.44551 | 38006 ft | 432 kts | 234° |
| 2026-04-28 11:15 | 32.28120 | 131.39026 | 38009 ft | 432 kts | 234° |
| 2026-04-28 11:15 | 32.24123 | 131.33447 | 38030 ft | 433 kts | 234° |
| 2026-04-28 11:16 | 32.20154 | 131.27916 | 38022 ft | 431 kts | 234° |
| 2026-04-28 11:16 | 32.16140 | 131.22328 | 38019 ft | 434 kts | 234° |
| 2026-04-28 11:17 | 32.12120 | 131.16744 | 38026 ft | 434 kts | 234° |
| 2026-04-28 11:17 | 32.08130 | 131.11208 | 38017 ft | 433 kts | 234° |
| 2026-04-28 11:18 | 32.04182 | 131.05737 | 38018 ft | 432 kts | 234° |
| 2026-04-28 11:18 | 32.00205 | 131.00235 | 38019 ft | 436 kts | 234° |
| 2026-04-28 11:19 | 31.96225 | 130.94731 | 38026 ft | 434 kts | 234° |
| 2026-04-28 11:19 | 31.92196 | 130.89169 | 38025 ft | 435 kts | 234° |
| 2026-04-28 11:20 | 31.88232 | 130.83705 | 38029 ft | 435 kts | 234° |
| 2026-04-28 11:20 | 31.84231 | 130.78198 | 38035 ft | 435 kts | 234° |
| 2026-04-28 11:21 | 31.80216 | 130.72679 | 38030 ft | 435 kts | 234° |
| 2026-04-28 11:21 | 31.76239 | 130.67221 | 38030 ft | 437 kts | 234° |
| 2026-04-28 11:22 | 31.72220 | 130.61713 | 38033 ft | 437 kts | 234° |
| 2026-04-28 11:22 | 31.68295 | 130.56253 | 38036 ft | 435 kts | 237° |
| 2026-04-28 11:23 | 31.64589 | 130.50557 | 38033 ft | 436 kts | 237° |
| 2026-04-28 11:23 | 31.60808 | 130.44766 | 38029 ft | 435 kts | 237° |
| 2026-04-28 11:24 | 31.57052 | 130.39043 | 38027 ft | 438 kts | 237° |
| 2026-04-28 11:24 | 31.53288 | 130.33327 | 38041 ft | 436 kts | 236° |
| 2026-04-28 11:25 | 31.49489 | 130.27571 | 38035 ft | 437 kts | 236° |
| 2026-04-28 11:25 | 31.45706 | 130.21849 | 38036 ft | 439 kts | 237° |
| 2026-04-28 11:26 | 31.41876 | 130.16067 | 38037 ft | 438 kts | 236° |
| 2026-04-28 11:26 | 31.38094 | 130.10367 | 38035 ft | 439 kts | 236° |
| 2026-04-28 11:27 | 31.34249 | 130.04582 | 38034 ft | 437 kts | 237° |
| 2026-04-28 11:27 | 31.30452 | 129.98875 | 38029 ft | 440 kts | 236° |
| 2026-04-28 11:28 | 31.26636 | 129.93150 | 38031 ft | 439 kts | 236° |
| 2026-04-28 11:28 | 31.22892 | 129.87541 | 38026 ft | 440 kts | 237° |
| 2026-04-28 11:29 | 31.19047 | 129.81790 | 38028 ft | 439 kts | 236° |
| 2026-04-28 11:29 | 31.15227 | 129.76082 | 38027 ft | 440 kts | 237° |
| 2026-04-28 11:30 | 31.11457 | 129.70459 | 38030 ft | 441 kts | 237° |
| 2026-04-28 11:30 | 31.05889 | 129.62169 | 38025 ft | 441 kts | 237° |
| 2026-04-28 11:31 | 31.02052 | 129.56464 | 38028 ft | 443 kts | 237° |
| 2026-04-28 11:31 | 30.98246 | 129.50816 | 38028 ft | 442 kts | 237° |
| 2026-04-28 11:32 | 30.94439 | 129.45174 | 38038 ft | 442 kts | 237° |
| 2026-04-28 11:32 | 30.90615 | 129.39516 | 38042 ft | 442 kts | 237° |
| 2026-04-28 11:33 | 30.86800 | 129.33878 | 38044 ft | 443 kts | 236° |
| 2026-04-28 11:33 | 30.82970 | 129.28226 | 38051 ft | 442 kts | 236° |
| 2026-04-28 11:34 | 30.79140 | 129.22583 | 38053 ft | 444 kts | 236° |
| 2026-04-28 11:34 | 30.75315 | 129.16876 | 38053 ft | 443 kts | 237° |
| 2026-04-28 11:35 | 30.71577 | 129.11165 | 38055 ft | 443 kts | 238° |
| 2026-04-28 11:35 | 30.67823 | 129.05444 | 38055 ft | 444 kts | 237° |
| 2026-04-28 11:36 | 30.64070 | 128.99739 | 38052 ft | 445 kts | 237° |
| 2026-04-28 11:36 | 30.60326 | 128.94060 | 38051 ft | 443 kts | 238° |
| 2026-04-28 11:37 | 30.56533 | 128.88312 | 38052 ft | 447 kts | 237° |
| 2026-04-28 11:37 | 30.52763 | 128.82613 | 38052 ft | 444 kts | 237° |
| 2026-04-28 11:38 | 30.48951 | 128.76854 | 38053 ft | 446 kts | 237° |
| 2026-04-28 11:38 | 30.45195 | 128.71191 | 38056 ft | 446 kts | 237° |
| 2026-04-28 11:39 | 30.41390 | 128.65462 | 38049 ft | 445 kts | 238° |
| 2026-04-28 11:39 | 30.37599 | 128.59761 | 38059 ft | 446 kts | 238° |
| 2026-04-28 11:40 | 30.33806 | 128.54066 | 38055 ft | 446 kts | 237° |
| 2026-04-28 11:40 | 30.30011 | 128.48377 | 38051 ft | 445 kts | 238° |
| 2026-04-28 11:41 | 30.26226 | 128.42709 | 38055 ft | 447 kts | 238° |
| 2026-04-28 11:41 | 30.22417 | 128.37015 | 38055 ft | 447 kts | 238° |
| 2026-04-28 11:42 | 30.18586 | 128.31294 | 38068 ft | 448 kts | 237° |
| 2026-04-28 11:42 | 30.14780 | 128.25621 | 38070 ft | 446 kts | 237° |
| 2026-04-28 11:43 | 30.10952 | 128.19922 | 38072 ft | 449 kts | 237° |
| 2026-04-28 11:43 | 30.08397 | 128.16122 | 38068 ft | 449 kts | 237° |